<?xml version="1.0" encoding="UTF-8" standalone="no" ?>
<gpx xmlns="http://www.topografix.com/GPX/1/1" xmlns:xsi="http://www.w3.org/2001/XMLSchema-instance" xsi:schemaLocation="http://www.topografix.com/GPX/1/1 http://www.topografix.com/GPX/1/1/gpx.xsd" version="1.1" creator="VisuGPX - https://www.visugpx.com">
  <metadata>
    <name>Chasse au GPS</name>
    <desc><![CDATA[J\\\\\\\'ai perdu mon GPS sur cette portion de single... si vous avez de la chance, à vous de jouer.

Il s\\\\\\\'agit d\\\\\\\'un Garmin Edge Turing Blanc et noir.]]></desc>
  </metadata>
  <trk>
    <name><![CDATA[Perte-GPS]]></name>
    <trkseg>
      <trkpt lat="43.35772" lon="2.93131">
        <ele>114.9</ele>
        <time>2015-05-14T06:38:32Z</time>
      </trkpt>
      <trkpt lat="43.35772" lon="2.93129">
        <ele>115.2</ele>
        <time>2015-05-14T06:38:33Z</time>
      </trkpt>
      <trkpt lat="43.35771" lon="2.93128">
        <ele>115.4</ele>
        <time>2015-05-14T06:38:34Z</time>
      </trkpt>
      <trkpt lat="43.35772" lon="2.93126">
        <ele>115.6</ele>
        <time>2015-05-14T06:38:36Z</time>
      </trkpt>
      <trkpt lat="43.35772" lon="2.93126">
        <ele>115.6</ele>
        <time>2015-05-14T06:38:37Z</time>
      </trkpt>
      <trkpt lat="43.35772" lon="2.93126">
        <ele>115.6</ele>
        <time>2015-05-14T06:38:38Z</time>
      </trkpt>
      <trkpt lat="43.35772" lon="2.93126">
        <ele>115.6</ele>
        <time>2015-05-14T06:38:41Z</time>
      </trkpt>
      <trkpt lat="43.35772" lon="2.93126">
        <ele>115.6</ele>
        <time>2015-05-14T06:38:42Z</time>
      </trkpt>
      <trkpt lat="43.35772" lon="2.93127">
        <ele>115.5</ele>
        <time>2015-05-14T06:38:58Z</time>
      </trkpt>
      <trkpt lat="43.35772" lon="2.93126">
        <ele>115.6</ele>
        <time>2015-05-14T06:38:59Z</time>
      </trkpt>
      <trkpt lat="43.35773" lon="2.93126">
        <ele>115.7</ele>
        <time>2015-05-14T06:39:00Z</time>
      </trkpt>
      <trkpt lat="43.35772" lon="2.9312">
        <ele>116.6</ele>
        <time>2015-05-14T06:39:04Z</time>
      </trkpt>
      <trkpt lat="43.35772" lon="2.93119">
        <ele>116.9</ele>
        <time>2015-05-14T06:39:05Z</time>
      </trkpt>
      <trkpt lat="43.3577" lon="2.93115">
        <ele>117.6</ele>
        <time>2015-05-14T06:39:09Z</time>
      </trkpt>
      <trkpt lat="43.3577" lon="2.93115">
        <ele>117.7</ele>
        <time>2015-05-14T06:39:10Z</time>
      </trkpt>
      <trkpt lat="43.3577" lon="2.93114">
        <ele>117.8</ele>
        <time>2015-05-14T06:39:11Z</time>
      </trkpt>
      <trkpt lat="43.3577" lon="2.93113">
        <ele>118</ele>
        <time>2015-05-14T06:39:12Z</time>
      </trkpt>
      <trkpt lat="43.35771" lon="2.93112">
        <ele>118.1</ele>
        <time>2015-05-14T06:39:14Z</time>
      </trkpt>
      <trkpt lat="43.35771" lon="2.93111">
        <ele>118.2</ele>
        <time>2015-05-14T06:39:15Z</time>
      </trkpt>
      <trkpt lat="43.3577" lon="2.9311">
        <ele>118.6</ele>
        <time>2015-05-14T06:39:17Z</time>
      </trkpt>
      <trkpt lat="43.3577" lon="2.9311">
        <ele>118.6</ele>
        <time>2015-05-14T06:39:18Z</time>
      </trkpt>
      <trkpt lat="43.3577" lon="2.93109">
        <ele>118.8</ele>
        <time>2015-05-14T06:39:19Z</time>
      </trkpt>
      <trkpt lat="43.3577" lon="2.93109">
        <ele>118.8</ele>
        <time>2015-05-14T06:39:20Z</time>
      </trkpt>
      <trkpt lat="43.3577" lon="2.9311">
        <ele>118.7</ele>
        <time>2015-05-14T06:39:57Z</time>
      </trkpt>
      <trkpt lat="43.3577" lon="2.93109">
        <ele>118.8</ele>
        <time>2015-05-14T06:39:58Z</time>
      </trkpt>
      <trkpt lat="43.3577" lon="2.93109">
        <ele>118.8</ele>
        <time>2015-05-14T06:40:06Z</time>
      </trkpt>
      <trkpt lat="43.3577" lon="2.93108">
        <ele>119</ele>
        <time>2015-05-14T06:40:08Z</time>
      </trkpt>
      <trkpt lat="43.3577" lon="2.93108">
        <ele>119.1</ele>
        <time>2015-05-14T06:40:11Z</time>
      </trkpt>
      <trkpt lat="43.3577" lon="2.93108">
        <ele>119.1</ele>
        <time>2015-05-14T06:40:12Z</time>
      </trkpt>
      <trkpt lat="43.3577" lon="2.93108">
        <ele>119.1</ele>
        <time>2015-05-14T06:40:17Z</time>
      </trkpt>
      <trkpt lat="43.35771" lon="2.93106">
        <ele>119.5</ele>
        <time>2015-05-14T06:40:18Z</time>
      </trkpt>
      <trkpt lat="43.35774" lon="2.931">
        <ele>121.3</ele>
        <time>2015-05-14T06:40:21Z</time>
      </trkpt>
      <trkpt lat="43.35776" lon="2.93096">
        <ele>122.3</ele>
        <time>2015-05-14T06:40:23Z</time>
      </trkpt>
      <trkpt lat="43.35777" lon="2.93095">
        <ele>122.7</ele>
        <time>2015-05-14T06:40:24Z</time>
      </trkpt>
      <trkpt lat="43.35778" lon="2.93093">
        <ele>123.2</ele>
        <time>2015-05-14T06:40:25Z</time>
      </trkpt>
      <trkpt lat="43.3578" lon="2.93091">
        <ele>123.5</ele>
        <time>2015-05-14T06:40:26Z</time>
      </trkpt>
      <trkpt lat="43.3578" lon="2.93089">
        <ele>124</ele>
        <time>2015-05-14T06:40:27Z</time>
      </trkpt>
      <trkpt lat="43.35782" lon="2.93086">
        <ele>124.5</ele>
        <time>2015-05-14T06:40:29Z</time>
      </trkpt>
      <trkpt lat="43.35784" lon="2.93085">
        <ele>124.6</ele>
        <time>2015-05-14T06:40:30Z</time>
      </trkpt>
      <trkpt lat="43.35785" lon="2.93083">
        <ele>124.7</ele>
        <time>2015-05-14T06:40:31Z</time>
      </trkpt>
      <trkpt lat="43.35786" lon="2.93082">
        <ele>124.9</ele>
        <time>2015-05-14T06:40:32Z</time>
      </trkpt>
      <trkpt lat="43.35788" lon="2.93081">
        <ele>125</ele>
        <time>2015-05-14T06:40:33Z</time>
      </trkpt>
      <trkpt lat="43.35788" lon="2.93079">
        <ele>125.3</ele>
        <time>2015-05-14T06:40:34Z</time>
      </trkpt>
      <trkpt lat="43.35793" lon="2.93073">
        <ele>126.2</ele>
        <time>2015-05-14T06:40:38Z</time>
      </trkpt>
      <trkpt lat="43.35794" lon="2.93071">
        <ele>126.4</ele>
        <time>2015-05-14T06:40:39Z</time>
      </trkpt>
      <trkpt lat="43.35796" lon="2.9307">
        <ele>126.5</ele>
        <time>2015-05-14T06:40:40Z</time>
      </trkpt>
      <trkpt lat="43.35797" lon="2.93068">
        <ele>126.7</ele>
        <time>2015-05-14T06:40:41Z</time>
      </trkpt>
      <trkpt lat="43.35798" lon="2.93068">
        <ele>126.7</ele>
        <time>2015-05-14T06:40:42Z</time>
      </trkpt>
      <trkpt lat="43.35807" lon="2.93055">
        <ele>128.9</ele>
        <time>2015-05-14T06:40:48Z</time>
      </trkpt>
      <trkpt lat="43.35813" lon="2.93045">
        <ele>129.8</ele>
        <time>2015-05-14T06:40:53Z</time>
      </trkpt>
      <trkpt lat="43.35815" lon="2.93044">
        <ele>129.8</ele>
        <time>2015-05-14T06:40:54Z</time>
      </trkpt>
      <trkpt lat="43.35816" lon="2.93042">
        <ele>129.8</ele>
        <time>2015-05-14T06:40:55Z</time>
      </trkpt>
      <trkpt lat="43.35818" lon="2.93041">
        <ele>129.8</ele>
        <time>2015-05-14T06:40:56Z</time>
      </trkpt>
      <trkpt lat="43.3582" lon="2.93039">
        <ele>129.9</ele>
        <time>2015-05-14T06:40:57Z</time>
      </trkpt>
      <trkpt lat="43.35825" lon="2.93033">
        <ele>130.2</ele>
        <time>2015-05-14T06:41:01Z</time>
      </trkpt>
      <trkpt lat="43.35834" lon="2.93026">
        <ele>130.5</ele>
        <time>2015-05-14T06:41:06Z</time>
      </trkpt>
      <trkpt lat="43.35836" lon="2.93025">
        <ele>130.6</ele>
        <time>2015-05-14T06:41:07Z</time>
      </trkpt>
      <trkpt lat="43.35838" lon="2.93024">
        <ele>130.7</ele>
        <time>2015-05-14T06:41:08Z</time>
      </trkpt>
      <trkpt lat="43.35839" lon="2.93023">
        <ele>130.7</ele>
        <time>2015-05-14T06:41:09Z</time>
      </trkpt>
      <trkpt lat="43.35841" lon="2.93022">
        <ele>130.8</ele>
        <time>2015-05-14T06:41:10Z</time>
      </trkpt>
      <trkpt lat="43.35849" lon="2.93018">
        <ele>131.2</ele>
        <time>2015-05-14T06:41:15Z</time>
      </trkpt>
      <trkpt lat="43.35851" lon="2.93016">
        <ele>131.3</ele>
        <time>2015-05-14T06:41:16Z</time>
      </trkpt>
      <trkpt lat="43.35853" lon="2.93015">
        <ele>131.5</ele>
        <time>2015-05-14T06:41:17Z</time>
      </trkpt>
      <trkpt lat="43.35855" lon="2.93013">
        <ele>131.7</ele>
        <time>2015-05-14T06:41:18Z</time>
      </trkpt>
      <trkpt lat="43.35857" lon="2.93011">
        <ele>132</ele>
        <time>2015-05-14T06:41:19Z</time>
      </trkpt>
      <trkpt lat="43.35862" lon="2.93005">
        <ele>132.9</ele>
        <time>2015-05-14T06:41:22Z</time>
      </trkpt>
      <trkpt lat="43.35873" lon="2.92991">
        <ele>134.4</ele>
        <time>2015-05-14T06:41:29Z</time>
      </trkpt>
      <trkpt lat="43.35887" lon="2.92974">
        <ele>134.3</ele>
        <time>2015-05-14T06:41:36Z</time>
      </trkpt>
      <trkpt lat="43.3589" lon="2.92955">
        <ele>135.9</ele>
        <time>2015-05-14T06:41:41Z</time>
      </trkpt>
      <trkpt lat="43.35888" lon="2.92952">
        <ele>136.2</ele>
        <time>2015-05-14T06:41:42Z</time>
      </trkpt>
      <trkpt lat="43.35886" lon="2.9295">
        <ele>136.7</ele>
        <time>2015-05-14T06:41:43Z</time>
      </trkpt>
      <trkpt lat="43.35884" lon="2.92949">
        <ele>137.1</ele>
        <time>2015-05-14T06:41:44Z</time>
      </trkpt>
      <trkpt lat="43.35882" lon="2.92948">
        <ele>137.5</ele>
        <time>2015-05-14T06:41:45Z</time>
      </trkpt>
      <trkpt lat="43.35879" lon="2.92948">
        <ele>137.8</ele>
        <time>2015-05-14T06:41:46Z</time>
      </trkpt>
      <trkpt lat="43.35867" lon="2.92946">
        <ele>139.2</ele>
        <time>2015-05-14T06:41:51Z</time>
      </trkpt>
      <trkpt lat="43.35866" lon="2.92946">
        <ele>139.5</ele>
        <time>2015-05-14T06:41:52Z</time>
      </trkpt>
      <trkpt lat="43.35863" lon="2.92945">
        <ele>139.7</ele>
        <time>2015-05-14T06:41:53Z</time>
      </trkpt>
      <trkpt lat="43.35861" lon="2.92945">
        <ele>140</ele>
        <time>2015-05-14T06:41:54Z</time>
      </trkpt>
      <trkpt lat="43.35859" lon="2.92944">
        <ele>139.7</ele>
        <time>2015-05-14T06:41:55Z</time>
      </trkpt>
      <trkpt lat="43.35853" lon="2.9294">
        <ele>139.4</ele>
        <time>2015-05-14T06:41:59Z</time>
      </trkpt>
      <trkpt lat="43.35851" lon="2.92938">
        <ele>139.4</ele>
        <time>2015-05-14T06:42:00Z</time>
      </trkpt>
      <trkpt lat="43.35849" lon="2.92936">
        <ele>139.5</ele>
        <time>2015-05-14T06:42:01Z</time>
      </trkpt>
      <trkpt lat="43.35848" lon="2.92934">
        <ele>139.6</ele>
        <time>2015-05-14T06:42:02Z</time>
      </trkpt>
      <trkpt lat="43.35846" lon="2.92932">
        <ele>139.7</ele>
        <time>2015-05-14T06:42:03Z</time>
      </trkpt>
      <trkpt lat="43.35845" lon="2.92931">
        <ele>139.7</ele>
        <time>2015-05-14T06:42:04Z</time>
      </trkpt>
      <trkpt lat="43.35841" lon="2.92927">
        <ele>139.8</ele>
        <time>2015-05-14T06:42:06Z</time>
      </trkpt>
      <trkpt lat="43.35837" lon="2.92924">
        <ele>140</ele>
        <time>2015-05-14T06:42:08Z</time>
      </trkpt>
      <trkpt lat="43.35835" lon="2.92922">
        <ele>140.1</ele>
        <time>2015-05-14T06:42:09Z</time>
      </trkpt>
      <trkpt lat="43.35833" lon="2.92921">
        <ele>140.3</ele>
        <time>2015-05-14T06:42:10Z</time>
      </trkpt>
      <trkpt lat="43.35832" lon="2.9292">
        <ele>140.1</ele>
        <time>2015-05-14T06:42:11Z</time>
      </trkpt>
      <trkpt lat="43.3583" lon="2.92919">
        <ele>139.9</ele>
        <time>2015-05-14T06:42:12Z</time>
      </trkpt>
      <trkpt lat="43.35828" lon="2.92917">
        <ele>139.7</ele>
        <time>2015-05-14T06:42:13Z</time>
      </trkpt>
      <trkpt lat="43.35815" lon="2.92906">
        <ele>140.2</ele>
        <time>2015-05-14T06:42:20Z</time>
      </trkpt>
      <trkpt lat="43.358" lon="2.92896">
        <ele>140.6</ele>
        <time>2015-05-14T06:42:27Z</time>
      </trkpt>
      <trkpt lat="43.35798" lon="2.92895">
        <ele>140.5</ele>
        <time>2015-05-14T06:42:28Z</time>
      </trkpt>
      <trkpt lat="43.35796" lon="2.92894">
        <ele>140.4</ele>
        <time>2015-05-14T06:42:29Z</time>
      </trkpt>
      <trkpt lat="43.35794" lon="2.92893">
        <ele>140.6</ele>
        <time>2015-05-14T06:42:30Z</time>
      </trkpt>
      <trkpt lat="43.35786" lon="2.92888">
        <ele>140.9</ele>
        <time>2015-05-14T06:42:34Z</time>
      </trkpt>
      <trkpt lat="43.35785" lon="2.92887">
        <ele>141</ele>
        <time>2015-05-14T06:42:35Z</time>
      </trkpt>
      <trkpt lat="43.35782" lon="2.92885">
        <ele>141.1</ele>
        <time>2015-05-14T06:42:36Z</time>
      </trkpt>
      <trkpt lat="43.35781" lon="2.92884">
        <ele>141.4</ele>
        <time>2015-05-14T06:42:37Z</time>
      </trkpt>
      <trkpt lat="43.35779" lon="2.92882">
        <ele>141.7</ele>
        <time>2015-05-14T06:42:38Z</time>
      </trkpt>
      <trkpt lat="43.35778" lon="2.9288">
        <ele>142.2</ele>
        <time>2015-05-14T06:42:39Z</time>
      </trkpt>
      <trkpt lat="43.35776" lon="2.92879">
        <ele>142.3</ele>
        <time>2015-05-14T06:42:40Z</time>
      </trkpt>
      <trkpt lat="43.35766" lon="2.92864">
        <ele>144.4</ele>
        <time>2015-05-14T06:42:47Z</time>
      </trkpt>
      <trkpt lat="43.35765" lon="2.92861">
        <ele>144.9</ele>
        <time>2015-05-14T06:42:48Z</time>
      </trkpt>
      <trkpt lat="43.35764" lon="2.92858">
        <ele>145.4</ele>
        <time>2015-05-14T06:42:49Z</time>
      </trkpt>
      <trkpt lat="43.35762" lon="2.92855">
        <ele>145.7</ele>
        <time>2015-05-14T06:42:50Z</time>
      </trkpt>
      <trkpt lat="43.35761" lon="2.92853">
        <ele>146.1</ele>
        <time>2015-05-14T06:42:51Z</time>
      </trkpt>
      <trkpt lat="43.35757" lon="2.92844">
        <ele>147.3</ele>
        <time>2015-05-14T06:42:54Z</time>
      </trkpt>
      <trkpt lat="43.35754" lon="2.9284">
        <ele>148</ele>
        <time>2015-05-14T06:42:56Z</time>
      </trkpt>
      <trkpt lat="43.35753" lon="2.92837">
        <ele>148.3</ele>
        <time>2015-05-14T06:42:57Z</time>
      </trkpt>
      <trkpt lat="43.35751" lon="2.92836">
        <ele>148.6</ele>
        <time>2015-05-14T06:42:58Z</time>
      </trkpt>
      <trkpt lat="43.3575" lon="2.92833">
        <ele>149</ele>
        <time>2015-05-14T06:42:59Z</time>
      </trkpt>
      <trkpt lat="43.35749" lon="2.92831">
        <ele>148.9</ele>
        <time>2015-05-14T06:43:00Z</time>
      </trkpt>
      <trkpt lat="43.35746" lon="2.92827">
        <ele>148.8</ele>
        <time>2015-05-14T06:43:02Z</time>
      </trkpt>
      <trkpt lat="43.35741" lon="2.92819">
        <ele>148.5</ele>
        <time>2015-05-14T06:43:06Z</time>
      </trkpt>
      <trkpt lat="43.3574" lon="2.92817">
        <ele>148.5</ele>
        <time>2015-05-14T06:43:07Z</time>
      </trkpt>
      <trkpt lat="43.35739" lon="2.92815">
        <ele>148.6</ele>
        <time>2015-05-14T06:43:08Z</time>
      </trkpt>
      <trkpt lat="43.35738" lon="2.92812">
        <ele>149.1</ele>
        <time>2015-05-14T06:43:09Z</time>
      </trkpt>
      <trkpt lat="43.35739" lon="2.9281">
        <ele>149.9</ele>
        <time>2015-05-14T06:43:10Z</time>
      </trkpt>
      <trkpt lat="43.35742" lon="2.92808">
        <ele>151.7</ele>
        <time>2015-05-14T06:43:13Z</time>
      </trkpt>
      <trkpt lat="43.35747" lon="2.92811">
        <ele>152.5</ele>
        <time>2015-05-14T06:43:16Z</time>
      </trkpt>
      <trkpt lat="43.35748" lon="2.92813">
        <ele>152.8</ele>
        <time>2015-05-14T06:43:17Z</time>
      </trkpt>
      <trkpt lat="43.3575" lon="2.92814">
        <ele>153.2</ele>
        <time>2015-05-14T06:43:18Z</time>
      </trkpt>
      <trkpt lat="43.35751" lon="2.92815">
        <ele>153.3</ele>
        <time>2015-05-14T06:43:19Z</time>
      </trkpt>
      <trkpt lat="43.35758" lon="2.92819">
        <ele>154.3</ele>
        <time>2015-05-14T06:43:23Z</time>
      </trkpt>
      <trkpt lat="43.35762" lon="2.92821">
        <ele>154.8</ele>
        <time>2015-05-14T06:43:25Z</time>
      </trkpt>
      <trkpt lat="43.35763" lon="2.92822">
        <ele>154.9</ele>
        <time>2015-05-14T06:43:26Z</time>
      </trkpt>
      <trkpt lat="43.35765" lon="2.92823">
        <ele>155.1</ele>
        <time>2015-05-14T06:43:27Z</time>
      </trkpt>
      <trkpt lat="43.35766" lon="2.92824">
        <ele>155.3</ele>
        <time>2015-05-14T06:43:28Z</time>
      </trkpt>
      <trkpt lat="43.35768" lon="2.92826">
        <ele>155.5</ele>
        <time>2015-05-14T06:43:29Z</time>
      </trkpt>
      <trkpt lat="43.35771" lon="2.92828">
        <ele>155.7</ele>
        <time>2015-05-14T06:43:31Z</time>
      </trkpt>
      <trkpt lat="43.3578" lon="2.92834">
        <ele>156.4</ele>
        <time>2015-05-14T06:43:36Z</time>
      </trkpt>
      <trkpt lat="43.35781" lon="2.92835">
        <ele>156.6</ele>
        <time>2015-05-14T06:43:37Z</time>
      </trkpt>
      <trkpt lat="43.35783" lon="2.92835">
        <ele>156.7</ele>
        <time>2015-05-14T06:43:38Z</time>
      </trkpt>
      <trkpt lat="43.35784" lon="2.92836">
        <ele>157</ele>
        <time>2015-05-14T06:43:39Z</time>
      </trkpt>
      <trkpt lat="43.35786" lon="2.92837">
        <ele>156.9</ele>
        <time>2015-05-14T06:43:40Z</time>
      </trkpt>
      <trkpt lat="43.35793" lon="2.92841">
        <ele>157.5</ele>
        <time>2015-05-14T06:43:44Z</time>
      </trkpt>
      <trkpt lat="43.35796" lon="2.92842">
        <ele>157.7</ele>
        <time>2015-05-14T06:43:46Z</time>
      </trkpt>
      <trkpt lat="43.35798" lon="2.92842">
        <ele>158.1</ele>
        <time>2015-05-14T06:43:47Z</time>
      </trkpt>
      <trkpt lat="43.358" lon="2.92843">
        <ele>158.3</ele>
        <time>2015-05-14T06:43:48Z</time>
      </trkpt>
      <trkpt lat="43.35802" lon="2.92844">
        <ele>158.4</ele>
        <time>2015-05-14T06:43:49Z</time>
      </trkpt>
      <trkpt lat="43.35804" lon="2.92845">
        <ele>158.4</ele>
        <time>2015-05-14T06:43:50Z</time>
      </trkpt>
      <trkpt lat="43.35816" lon="2.92847">
        <ele>159.9</ele>
        <time>2015-05-14T06:43:57Z</time>
      </trkpt>
      <trkpt lat="43.35817" lon="2.92847">
        <ele>160.2</ele>
        <time>2015-05-14T06:43:58Z</time>
      </trkpt>
      <trkpt lat="43.35819" lon="2.92848">
        <ele>160.3</ele>
        <time>2015-05-14T06:43:59Z</time>
      </trkpt>
      <trkpt lat="43.35821" lon="2.92848">
        <ele>160.6</ele>
        <time>2015-05-14T06:44:00Z</time>
      </trkpt>
      <trkpt lat="43.35824" lon="2.92848">
        <ele>161</ele>
        <time>2015-05-14T06:44:01Z</time>
      </trkpt>
      <trkpt lat="43.3583" lon="2.9285">
        <ele>161.6</ele>
        <time>2015-05-14T06:44:04Z</time>
      </trkpt>
      <trkpt lat="43.35836" lon="2.9285">
        <ele>162.6</ele>
        <time>2015-05-14T06:44:07Z</time>
      </trkpt>
      <trkpt lat="43.35838" lon="2.9285">
        <ele>163</ele>
        <time>2015-05-14T06:44:08Z</time>
      </trkpt>
      <trkpt lat="43.3584" lon="2.9285">
        <ele>163.3</ele>
        <time>2015-05-14T06:44:09Z</time>
      </trkpt>
      <trkpt lat="43.35843" lon="2.9285">
        <ele>163.7</ele>
        <time>2015-05-14T06:44:10Z</time>
      </trkpt>
      <trkpt lat="43.35849" lon="2.9285">
        <ele>164.5</ele>
        <time>2015-05-14T06:44:13Z</time>
      </trkpt>
      <trkpt lat="43.35855" lon="2.9285">
        <ele>165.4</ele>
        <time>2015-05-14T06:44:16Z</time>
      </trkpt>
      <trkpt lat="43.35857" lon="2.92849">
        <ele>165.9</ele>
        <time>2015-05-14T06:44:17Z</time>
      </trkpt>
      <trkpt lat="43.35858" lon="2.92848">
        <ele>166.3</ele>
        <time>2015-05-14T06:44:18Z</time>
      </trkpt>
      <trkpt lat="43.3586" lon="2.92848">
        <ele>166.7</ele>
        <time>2015-05-14T06:44:19Z</time>
      </trkpt>
      <trkpt lat="43.35862" lon="2.92847">
        <ele>166.9</ele>
        <time>2015-05-14T06:44:20Z</time>
      </trkpt>
      <trkpt lat="43.35875" lon="2.92843">
        <ele>167.8</ele>
        <time>2015-05-14T06:44:26Z</time>
      </trkpt>
      <trkpt lat="43.35876" lon="2.92842">
        <ele>168.1</ele>
        <time>2015-05-14T06:44:27Z</time>
      </trkpt>
      <trkpt lat="43.35878" lon="2.92841">
        <ele>168.4</ele>
        <time>2015-05-14T06:44:28Z</time>
      </trkpt>
      <trkpt lat="43.3588" lon="2.9284">
        <ele>168.7</ele>
        <time>2015-05-14T06:44:29Z</time>
      </trkpt>
      <trkpt lat="43.35882" lon="2.92839">
        <ele>169.1</ele>
        <time>2015-05-14T06:44:30Z</time>
      </trkpt>
      <trkpt lat="43.35891" lon="2.92832">
        <ele>171.1</ele>
        <time>2015-05-14T06:44:35Z</time>
      </trkpt>
      <trkpt lat="43.35893" lon="2.92831">
        <ele>171.2</ele>
        <time>2015-05-14T06:44:36Z</time>
      </trkpt>
      <trkpt lat="43.35894" lon="2.92829">
        <ele>171.5</ele>
        <time>2015-05-14T06:44:37Z</time>
      </trkpt>
      <trkpt lat="43.35896" lon="2.92827">
        <ele>171.6</ele>
        <time>2015-05-14T06:44:38Z</time>
      </trkpt>
      <trkpt lat="43.35897" lon="2.92826">
        <ele>171.9</ele>
        <time>2015-05-14T06:44:39Z</time>
      </trkpt>
      <trkpt lat="43.35899" lon="2.92825">
        <ele>172</ele>
        <time>2015-05-14T06:44:40Z</time>
      </trkpt>
      <trkpt lat="43.35909" lon="2.92817">
        <ele>173.1</ele>
        <time>2015-05-14T06:44:46Z</time>
      </trkpt>
      <trkpt lat="43.35911" lon="2.92816">
        <ele>173.4</ele>
        <time>2015-05-14T06:44:47Z</time>
      </trkpt>
      <trkpt lat="43.35913" lon="2.92815">
        <ele>173.5</ele>
        <time>2015-05-14T06:44:48Z</time>
      </trkpt>
      <trkpt lat="43.35914" lon="2.92814">
        <ele>173.6</ele>
        <time>2015-05-14T06:44:49Z</time>
      </trkpt>
      <trkpt lat="43.35916" lon="2.92813">
        <ele>173.7</ele>
        <time>2015-05-14T06:44:50Z</time>
      </trkpt>
      <trkpt lat="43.35923" lon="2.92809">
        <ele>174.9</ele>
        <time>2015-05-14T06:44:54Z</time>
      </trkpt>
      <trkpt lat="43.35928" lon="2.92806">
        <ele>175.4</ele>
        <time>2015-05-14T06:44:57Z</time>
      </trkpt>
      <trkpt lat="43.3593" lon="2.92806">
        <ele>175.5</ele>
        <time>2015-05-14T06:44:58Z</time>
      </trkpt>
      <trkpt lat="43.35932" lon="2.92805">
        <ele>175.5</ele>
        <time>2015-05-14T06:44:59Z</time>
      </trkpt>
      <trkpt lat="43.35934" lon="2.92804">
        <ele>175.6</ele>
        <time>2015-05-14T06:45:00Z</time>
      </trkpt>
      <trkpt lat="43.35936" lon="2.92804">
        <ele>175.7</ele>
        <time>2015-05-14T06:45:01Z</time>
      </trkpt>
      <trkpt lat="43.35949" lon="2.928">
        <ele>176.6</ele>
        <time>2015-05-14T06:45:08Z</time>
      </trkpt>
      <trkpt lat="43.35951" lon="2.92799">
        <ele>176.9</ele>
        <time>2015-05-14T06:45:09Z</time>
      </trkpt>
      <trkpt lat="43.35953" lon="2.928">
        <ele>177</ele>
        <time>2015-05-14T06:45:10Z</time>
      </trkpt>
      <trkpt lat="43.35955" lon="2.92799">
        <ele>177.2</ele>
        <time>2015-05-14T06:45:11Z</time>
      </trkpt>
      <trkpt lat="43.35957" lon="2.92798">
        <ele>177.6</ele>
        <time>2015-05-14T06:45:12Z</time>
      </trkpt>
      <trkpt lat="43.35959" lon="2.92798">
        <ele>177.9</ele>
        <time>2015-05-14T06:45:13Z</time>
      </trkpt>
      <trkpt lat="43.35962" lon="2.92798">
        <ele>178</ele>
        <time>2015-05-14T06:45:15Z</time>
      </trkpt>
      <trkpt lat="43.35972" lon="2.92796">
        <ele>179.5</ele>
        <time>2015-05-14T06:45:20Z</time>
      </trkpt>
      <trkpt lat="43.35974" lon="2.92796">
        <ele>179.7</ele>
        <time>2015-05-14T06:45:21Z</time>
      </trkpt>
      <trkpt lat="43.35976" lon="2.92795">
        <ele>179.9</ele>
        <time>2015-05-14T06:45:22Z</time>
      </trkpt>
      <trkpt lat="43.35978" lon="2.92796">
        <ele>180</ele>
        <time>2015-05-14T06:45:23Z</time>
      </trkpt>
      <trkpt lat="43.35987" lon="2.92794">
        <ele>181.2</ele>
        <time>2015-05-14T06:45:28Z</time>
      </trkpt>
      <trkpt lat="43.35991" lon="2.92794">
        <ele>181.5</ele>
        <time>2015-05-14T06:45:30Z</time>
      </trkpt>
      <trkpt lat="43.35993" lon="2.92794">
        <ele>181.7</ele>
        <time>2015-05-14T06:45:31Z</time>
      </trkpt>
      <trkpt lat="43.35995" lon="2.92793">
        <ele>182.1</ele>
        <time>2015-05-14T06:45:32Z</time>
      </trkpt>
      <trkpt lat="43.35997" lon="2.92793">
        <ele>182.4</ele>
        <time>2015-05-14T06:45:33Z</time>
      </trkpt>
      <trkpt lat="43.35999" lon="2.92792">
        <ele>182.7</ele>
        <time>2015-05-14T06:45:34Z</time>
      </trkpt>
      <trkpt lat="43.36001" lon="2.92792">
        <ele>182.9</ele>
        <time>2015-05-14T06:45:35Z</time>
      </trkpt>
      <trkpt lat="43.36008" lon="2.92792">
        <ele>183.6</ele>
        <time>2015-05-14T06:45:39Z</time>
      </trkpt>
      <trkpt lat="43.3601" lon="2.92791">
        <ele>183.9</ele>
        <time>2015-05-14T06:45:40Z</time>
      </trkpt>
      <trkpt lat="43.36012" lon="2.9279">
        <ele>184.3</ele>
        <time>2015-05-14T06:45:41Z</time>
      </trkpt>
      <trkpt lat="43.36014" lon="2.92789">
        <ele>184.6</ele>
        <time>2015-05-14T06:45:42Z</time>
      </trkpt>
      <trkpt lat="43.36016" lon="2.92789">
        <ele>184.8</ele>
        <time>2015-05-14T06:45:43Z</time>
      </trkpt>
      <trkpt lat="43.36028" lon="2.92787">
        <ele>186.3</ele>
        <time>2015-05-14T06:45:49Z</time>
      </trkpt>
      <trkpt lat="43.3603" lon="2.92787">
        <ele>186.5</ele>
        <time>2015-05-14T06:45:50Z</time>
      </trkpt>
      <trkpt lat="43.36032" lon="2.92786">
        <ele>186.6</ele>
        <time>2015-05-14T06:45:51Z</time>
      </trkpt>
      <trkpt lat="43.36034" lon="2.92786">
        <ele>186.9</ele>
        <time>2015-05-14T06:45:52Z</time>
      </trkpt>
      <trkpt lat="43.36036" lon="2.92785">
        <ele>187.2</ele>
        <time>2015-05-14T06:45:53Z</time>
      </trkpt>
      <trkpt lat="43.36043" lon="2.92784">
        <ele>187.6</ele>
        <time>2015-05-14T06:45:56Z</time>
      </trkpt>
      <trkpt lat="43.36058" lon="2.92783">
        <ele>188.4</ele>
        <time>2015-05-14T06:46:03Z</time>
      </trkpt>
      <trkpt lat="43.36061" lon="2.92783">
        <ele>188.4</ele>
        <time>2015-05-14T06:46:04Z</time>
      </trkpt>
      <trkpt lat="43.36063" lon="2.92783">
        <ele>188.6</ele>
        <time>2015-05-14T06:46:05Z</time>
      </trkpt>
      <trkpt lat="43.36065" lon="2.92783">
        <ele>188.7</ele>
        <time>2015-05-14T06:46:06Z</time>
      </trkpt>
      <trkpt lat="43.36067" lon="2.92782">
        <ele>188.9</ele>
        <time>2015-05-14T06:46:07Z</time>
      </trkpt>
      <trkpt lat="43.36069" lon="2.92782">
        <ele>189.1</ele>
        <time>2015-05-14T06:46:08Z</time>
      </trkpt>
      <trkpt lat="43.36077" lon="2.9278">
        <ele>190</ele>
        <time>2015-05-14T06:46:12Z</time>
      </trkpt>
      <trkpt lat="43.36088" lon="2.92777">
        <ele>191.1</ele>
        <time>2015-05-14T06:46:17Z</time>
      </trkpt>
      <trkpt lat="43.3609" lon="2.92776">
        <ele>191.4</ele>
        <time>2015-05-14T06:46:18Z</time>
      </trkpt>
      <trkpt lat="43.36092" lon="2.92775">
        <ele>191.7</ele>
        <time>2015-05-14T06:46:19Z</time>
      </trkpt>
      <trkpt lat="43.36095" lon="2.92774">
        <ele>191.9</ele>
        <time>2015-05-14T06:46:20Z</time>
      </trkpt>
      <trkpt lat="43.36097" lon="2.92774">
        <ele>192.2</ele>
        <time>2015-05-14T06:46:21Z</time>
      </trkpt>
      <trkpt lat="43.36112" lon="2.92772">
        <ele>192.6</ele>
        <time>2015-05-14T06:46:28Z</time>
      </trkpt>
      <trkpt lat="43.36127" lon="2.92774">
        <ele>192.5</ele>
        <time>2015-05-14T06:46:34Z</time>
      </trkpt>
      <trkpt lat="43.3613" lon="2.92774">
        <ele>192.5</ele>
        <time>2015-05-14T06:46:35Z</time>
      </trkpt>
      <trkpt lat="43.36132" lon="2.92774">
        <ele>192.6</ele>
        <time>2015-05-14T06:46:36Z</time>
      </trkpt>
      <trkpt lat="43.36134" lon="2.92774">
        <ele>192.6</ele>
        <time>2015-05-14T06:46:37Z</time>
      </trkpt>
      <trkpt lat="43.36141" lon="2.92774">
        <ele>193.1</ele>
        <time>2015-05-14T06:46:40Z</time>
      </trkpt>
      <trkpt lat="43.36155" lon="2.92771">
        <ele>195.5</ele>
        <time>2015-05-14T06:46:46Z</time>
      </trkpt>
      <trkpt lat="43.36158" lon="2.9277">
        <ele>195.8</ele>
        <time>2015-05-14T06:46:47Z</time>
      </trkpt>
      <trkpt lat="43.3616" lon="2.9277">
        <ele>196.1</ele>
        <time>2015-05-14T06:46:48Z</time>
      </trkpt>
      <trkpt lat="43.36162" lon="2.92771">
        <ele>196.1</ele>
        <time>2015-05-14T06:46:49Z</time>
      </trkpt>
      <trkpt lat="43.36165" lon="2.92772">
        <ele>196.3</ele>
        <time>2015-05-14T06:46:50Z</time>
      </trkpt>
      <trkpt lat="43.36171" lon="2.92776">
        <ele>196.7</ele>
        <time>2015-05-14T06:46:53Z</time>
      </trkpt>
      <trkpt lat="43.36177" lon="2.92781">
        <ele>197.3</ele>
        <time>2015-05-14T06:46:56Z</time>
      </trkpt>
      <trkpt lat="43.36179" lon="2.92783">
        <ele>197.6</ele>
        <time>2015-05-14T06:46:57Z</time>
      </trkpt>
      <trkpt lat="43.36182" lon="2.92784">
        <ele>197.8</ele>
        <time>2015-05-14T06:46:58Z</time>
      </trkpt>
      <trkpt lat="43.36184" lon="2.92785">
        <ele>198.1</ele>
        <time>2015-05-14T06:46:59Z</time>
      </trkpt>
      <trkpt lat="43.36186" lon="2.92787">
        <ele>198.4</ele>
        <time>2015-05-14T06:47:00Z</time>
      </trkpt>
      <trkpt lat="43.36192" lon="2.92791">
        <ele>198.9</ele>
        <time>2015-05-14T06:47:03Z</time>
      </trkpt>
      <trkpt lat="43.36194" lon="2.92792">
        <ele>199.2</ele>
        <time>2015-05-14T06:47:04Z</time>
      </trkpt>
      <trkpt lat="43.36195" lon="2.92793">
        <ele>199.3</ele>
        <time>2015-05-14T06:47:05Z</time>
      </trkpt>
      <trkpt lat="43.36197" lon="2.92794">
        <ele>199.6</ele>
        <time>2015-05-14T06:47:06Z</time>
      </trkpt>
      <trkpt lat="43.36199" lon="2.92796">
        <ele>199.6</ele>
        <time>2015-05-14T06:47:07Z</time>
      </trkpt>
      <trkpt lat="43.36201" lon="2.92798">
        <ele>199.7</ele>
        <time>2015-05-14T06:47:08Z</time>
      </trkpt>
      <trkpt lat="43.36212" lon="2.92804">
        <ele>200.9</ele>
        <time>2015-05-14T06:47:13Z</time>
      </trkpt>
      <trkpt lat="43.36214" lon="2.92806">
        <ele>200.9</ele>
        <time>2015-05-14T06:47:14Z</time>
      </trkpt>
      <trkpt lat="43.36216" lon="2.92808">
        <ele>201</ele>
        <time>2015-05-14T06:47:15Z</time>
      </trkpt>
      <trkpt lat="43.36218" lon="2.92809">
        <ele>201.3</ele>
        <time>2015-05-14T06:47:16Z</time>
      </trkpt>
      <trkpt lat="43.36221" lon="2.9281">
        <ele>201.6</ele>
        <time>2015-05-14T06:47:17Z</time>
      </trkpt>
      <trkpt lat="43.36233" lon="2.9282">
        <ele>202.1</ele>
        <time>2015-05-14T06:47:23Z</time>
      </trkpt>
      <trkpt lat="43.36245" lon="2.92827">
        <ele>203.1</ele>
        <time>2015-05-14T06:47:29Z</time>
      </trkpt>
      <trkpt lat="43.36259" lon="2.92836">
        <ele>203.6</ele>
        <time>2015-05-14T06:47:35Z</time>
      </trkpt>
      <trkpt lat="43.36265" lon="2.92839">
        <ele>203.9</ele>
        <time>2015-05-14T06:47:38Z</time>
      </trkpt>
      <trkpt lat="43.36268" lon="2.92841">
        <ele>203.9</ele>
        <time>2015-05-14T06:47:39Z</time>
      </trkpt>
      <trkpt lat="43.3627" lon="2.92842">
        <ele>203.8</ele>
        <time>2015-05-14T06:47:40Z</time>
      </trkpt>
      <trkpt lat="43.36272" lon="2.92843">
        <ele>203.9</ele>
        <time>2015-05-14T06:47:41Z</time>
      </trkpt>
      <trkpt lat="43.36274" lon="2.92844">
        <ele>204</ele>
        <time>2015-05-14T06:47:42Z</time>
      </trkpt>
      <trkpt lat="43.36276" lon="2.92845">
        <ele>204.1</ele>
        <time>2015-05-14T06:47:43Z</time>
      </trkpt>
      <trkpt lat="43.36293" lon="2.92856">
        <ele>204.5</ele>
        <time>2015-05-14T06:47:51Z</time>
      </trkpt>
      <trkpt lat="43.36309" lon="2.92862">
        <ele>205</ele>
        <time>2015-05-14T06:47:57Z</time>
      </trkpt>
      <trkpt lat="43.36329" lon="2.92866">
        <ele>205.8</ele>
        <time>2015-05-14T06:48:04Z</time>
      </trkpt>
      <trkpt lat="43.36348" lon="2.92874">
        <ele>206.2</ele>
        <time>2015-05-14T06:48:12Z</time>
      </trkpt>
      <trkpt lat="43.36361" lon="2.9289">
        <ele>206</ele>
        <time>2015-05-14T06:48:17Z</time>
      </trkpt>
      <trkpt lat="43.36377" lon="2.92913">
        <ele>208.3</ele>
        <time>2015-05-14T06:48:24Z</time>
      </trkpt>
      <trkpt lat="43.36378" lon="2.92916">
        <ele>208.4</ele>
        <time>2015-05-14T06:48:25Z</time>
      </trkpt>
      <trkpt lat="43.36379" lon="2.92919">
        <ele>208.5</ele>
        <time>2015-05-14T06:48:26Z</time>
      </trkpt>
      <trkpt lat="43.3638" lon="2.92923">
        <ele>208.6</ele>
        <time>2015-05-14T06:48:27Z</time>
      </trkpt>
      <trkpt lat="43.36382" lon="2.92927">
        <ele>208.6</ele>
        <time>2015-05-14T06:48:28Z</time>
      </trkpt>
      <trkpt lat="43.36383" lon="2.92931">
        <ele>208.6</ele>
        <time>2015-05-14T06:48:29Z</time>
      </trkpt>
      <trkpt lat="43.36385" lon="2.92936">
        <ele>208.4</ele>
        <time>2015-05-14T06:48:30Z</time>
      </trkpt>
      <trkpt lat="43.36393" lon="2.92968">
        <ele>207</ele>
        <time>2015-05-14T06:48:35Z</time>
      </trkpt>
      <trkpt lat="43.36398" lon="2.92994">
        <ele>208.5</ele>
        <time>2015-05-14T06:48:40Z</time>
      </trkpt>
      <trkpt lat="43.36397" lon="2.93018">
        <ele>210.7</ele>
        <time>2015-05-14T06:48:46Z</time>
      </trkpt>
      <trkpt lat="43.36397" lon="2.93024">
        <ele>211.3</ele>
        <time>2015-05-14T06:48:48Z</time>
      </trkpt>
      <trkpt lat="43.36397" lon="2.93028">
        <ele>211.8</ele>
        <time>2015-05-14T06:48:49Z</time>
      </trkpt>
      <trkpt lat="43.36396" lon="2.93032">
        <ele>212.4</ele>
        <time>2015-05-14T06:48:50Z</time>
      </trkpt>
      <trkpt lat="43.36396" lon="2.93036">
        <ele>212.9</ele>
        <time>2015-05-14T06:48:51Z</time>
      </trkpt>
      <trkpt lat="43.36396" lon="2.93039">
        <ele>213.5</ele>
        <time>2015-05-14T06:48:52Z</time>
      </trkpt>
      <trkpt lat="43.36388" lon="2.93055">
        <ele>214.9</ele>
        <time>2015-05-14T06:48:57Z</time>
      </trkpt>
      <trkpt lat="43.36387" lon="2.93057">
        <ele>214.8</ele>
        <time>2015-05-14T06:48:58Z</time>
      </trkpt>
      <trkpt lat="43.36386" lon="2.93058">
        <ele>214.8</ele>
        <time>2015-05-14T06:48:59Z</time>
      </trkpt>
      <trkpt lat="43.36385" lon="2.9306">
        <ele>214.8</ele>
        <time>2015-05-14T06:49:00Z</time>
      </trkpt>
      <trkpt lat="43.36383" lon="2.93062">
        <ele>214.7</ele>
        <time>2015-05-14T06:49:01Z</time>
      </trkpt>
      <trkpt lat="43.36381" lon="2.93064">
        <ele>214.6</ele>
        <time>2015-05-14T06:49:02Z</time>
      </trkpt>
      <trkpt lat="43.3637" lon="2.93073">
        <ele>214</ele>
        <time>2015-05-14T06:49:09Z</time>
      </trkpt>
      <trkpt lat="43.36359" lon="2.93079">
        <ele>213.2</ele>
        <time>2015-05-14T06:49:15Z</time>
      </trkpt>
      <trkpt lat="43.36349" lon="2.93081">
        <ele>212</ele>
        <time>2015-05-14T06:49:20Z</time>
      </trkpt>
      <trkpt lat="43.36349" lon="2.93081">
        <ele>212.1</ele>
        <time>2015-05-14T06:49:21Z</time>
      </trkpt>
      <trkpt lat="43.36349" lon="2.93081">
        <ele>212</ele>
        <time>2015-05-14T06:49:56Z</time>
      </trkpt>
      <trkpt lat="43.36349" lon="2.93082">
        <ele>212.1</ele>
        <time>2015-05-14T06:49:58Z</time>
      </trkpt>
      <trkpt lat="43.36349" lon="2.93081">
        <ele>212</ele>
        <time>2015-05-14T06:49:59Z</time>
      </trkpt>
      <trkpt lat="43.3635" lon="2.93081">
        <ele>212.1</ele>
        <time>2015-05-14T06:50:00Z</time>
      </trkpt>
      <trkpt lat="43.36351" lon="2.93082">
        <ele>212.4</ele>
        <time>2015-05-14T06:50:02Z</time>
      </trkpt>
      <trkpt lat="43.36351" lon="2.93082">
        <ele>212.3</ele>
        <time>2015-05-14T06:50:03Z</time>
      </trkpt>
      <trkpt lat="43.36352" lon="2.93081">
        <ele>212.4</ele>
        <time>2015-05-14T06:50:04Z</time>
      </trkpt>
      <trkpt lat="43.36355" lon="2.93079">
        <ele>212.6</ele>
        <time>2015-05-14T06:50:07Z</time>
      </trkpt>
      <trkpt lat="43.36364" lon="2.93078">
        <ele>213.6</ele>
        <time>2015-05-14T06:50:11Z</time>
      </trkpt>
      <trkpt lat="43.36366" lon="2.93077">
        <ele>213.8</ele>
        <time>2015-05-14T06:50:12Z</time>
      </trkpt>
      <trkpt lat="43.36377" lon="2.93067">
        <ele>214.3</ele>
        <time>2015-05-14T06:50:18Z</time>
      </trkpt>
      <trkpt lat="43.36388" lon="2.93054">
        <ele>214.5</ele>
        <time>2015-05-14T06:50:23Z</time>
      </trkpt>
      <trkpt lat="43.36395" lon="2.93036">
        <ele>212.7</ele>
        <time>2015-05-14T06:50:27Z</time>
      </trkpt>
      <trkpt lat="43.36397" lon="2.93021">
        <ele>210.9</ele>
        <time>2015-05-14T06:50:31Z</time>
      </trkpt>
      <trkpt lat="43.36396" lon="2.9302">
        <ele>210.8</ele>
        <time>2015-05-14T06:50:33Z</time>
      </trkpt>
      <trkpt lat="43.36397" lon="2.93021">
        <ele>211</ele>
        <time>2015-05-14T06:50:37Z</time>
      </trkpt>
      <trkpt lat="43.36396" lon="2.93022">
        <ele>210.9</ele>
        <time>2015-05-14T06:50:38Z</time>
      </trkpt>
      <trkpt lat="43.36395" lon="2.9303">
        <ele>211.7</ele>
        <time>2015-05-14T06:50:43Z</time>
      </trkpt>
      <trkpt lat="43.36395" lon="2.93033">
        <ele>212.2</ele>
        <time>2015-05-14T06:50:45Z</time>
      </trkpt>
      <trkpt lat="43.36394" lon="2.93036">
        <ele>212.6</ele>
        <time>2015-05-14T06:50:49Z</time>
      </trkpt>
      <trkpt lat="43.36395" lon="2.93035">
        <ele>212.4</ele>
        <time>2015-05-14T06:50:51Z</time>
      </trkpt>
      <trkpt lat="43.36394" lon="2.93033">
        <ele>212.2</ele>
        <time>2015-05-14T06:50:52Z</time>
      </trkpt>
      <trkpt lat="43.36395" lon="2.93034">
        <ele>212.3</ele>
        <time>2015-05-14T06:50:53Z</time>
      </trkpt>
      <trkpt lat="43.36395" lon="2.93031">
        <ele>211.9</ele>
        <time>2015-05-14T06:50:55Z</time>
      </trkpt>
      <trkpt lat="43.36395" lon="2.93028">
        <ele>211.4</ele>
        <time>2015-05-14T06:50:56Z</time>
      </trkpt>
      <trkpt lat="43.36396" lon="2.93011">
        <ele>209.7</ele>
        <time>2015-05-14T06:51:00Z</time>
      </trkpt>
      <trkpt lat="43.36396" lon="2.92999">
        <ele>208.5</ele>
        <time>2015-05-14T06:51:02Z</time>
      </trkpt>
      <trkpt lat="43.36396" lon="2.92985">
        <ele>207.6</ele>
        <time>2015-05-14T06:51:04Z</time>
      </trkpt>
      <trkpt lat="43.36394" lon="2.92976">
        <ele>207</ele>
        <time>2015-05-14T06:51:05Z</time>
      </trkpt>
      <trkpt lat="43.36393" lon="2.92966">
        <ele>207</ele>
        <time>2015-05-14T06:51:06Z</time>
      </trkpt>
      <trkpt lat="43.36391" lon="2.92957">
        <ele>207.3</ele>
        <time>2015-05-14T06:51:07Z</time>
      </trkpt>
      <trkpt lat="43.36388" lon="2.9295">
        <ele>207.6</ele>
        <time>2015-05-14T06:51:08Z</time>
      </trkpt>
      <trkpt lat="43.36387" lon="2.92945">
        <ele>208</ele>
        <time>2015-05-14T06:51:09Z</time>
      </trkpt>
      <trkpt lat="43.36384" lon="2.92945">
        <ele>208</ele>
        <time>2015-05-14T06:51:10Z</time>
      </trkpt>
      <trkpt lat="43.36383" lon="2.92947">
        <ele>207.8</ele>
        <time>2015-05-14T06:51:11Z</time>
      </trkpt>
      <trkpt lat="43.36374" lon="2.92946">
        <ele>207.9</ele>
        <time>2015-05-14T06:51:14Z</time>
      </trkpt>
      <trkpt lat="43.36373" lon="2.92944">
        <ele>208</ele>
        <time>2015-05-14T06:51:15Z</time>
      </trkpt>
      <trkpt lat="43.36372" lon="2.92944">
        <ele>208</ele>
        <time>2015-05-14T06:51:16Z</time>
      </trkpt>
      <trkpt lat="43.36371" lon="2.92944">
        <ele>208</ele>
        <time>2015-05-14T06:51:17Z</time>
      </trkpt>
      <trkpt lat="43.36372" lon="2.92944">
        <ele>208</ele>
        <time>2015-05-14T06:51:18Z</time>
      </trkpt>
      <trkpt lat="43.36371" lon="2.92942">
        <ele>208</ele>
        <time>2015-05-14T06:51:43Z</time>
      </trkpt>
      <trkpt lat="43.36366" lon="2.92949">
        <ele>207.5</ele>
        <time>2015-05-14T06:51:47Z</time>
      </trkpt>
      <trkpt lat="43.36362" lon="2.9295">
        <ele>207.4</ele>
        <time>2015-05-14T06:51:49Z</time>
      </trkpt>
      <trkpt lat="43.3636" lon="2.92949">
        <ele>207.5</ele>
        <time>2015-05-14T06:51:50Z</time>
      </trkpt>
      <trkpt lat="43.36351" lon="2.92947">
        <ele>207.5</ele>
        <time>2015-05-14T06:51:53Z</time>
      </trkpt>
      <trkpt lat="43.36345" lon="2.92947">
        <ele>207.4</ele>
        <time>2015-05-14T06:51:55Z</time>
      </trkpt>
      <trkpt lat="43.3634" lon="2.92951">
        <ele>207.2</ele>
        <time>2015-05-14T06:51:58Z</time>
      </trkpt>
      <trkpt lat="43.36335" lon="2.92956">
        <ele>207.4</ele>
        <time>2015-05-14T06:52:00Z</time>
      </trkpt>
      <trkpt lat="43.36328" lon="2.92961">
        <ele>206.7</ele>
        <time>2015-05-14T06:52:03Z</time>
      </trkpt>
      <trkpt lat="43.36325" lon="2.92965">
        <ele>206.5</ele>
        <time>2015-05-14T06:52:06Z</time>
      </trkpt>
      <trkpt lat="43.36323" lon="2.92968">
        <ele>206.3</ele>
        <time>2015-05-14T06:52:08Z</time>
      </trkpt>
      <trkpt lat="43.36319" lon="2.92968">
        <ele>205.7</ele>
        <time>2015-05-14T06:52:10Z</time>
      </trkpt>
      <trkpt lat="43.36308" lon="2.92967">
        <ele>204.2</ele>
        <time>2015-05-14T06:52:13Z</time>
      </trkpt>
      <trkpt lat="43.363" lon="2.92971">
        <ele>203.3</ele>
        <time>2015-05-14T06:52:15Z</time>
      </trkpt>
      <trkpt lat="43.36296" lon="2.92971">
        <ele>202.9</ele>
        <time>2015-05-14T06:52:16Z</time>
      </trkpt>
      <trkpt lat="43.36291" lon="2.92969">
        <ele>202.1</ele>
        <time>2015-05-14T06:52:17Z</time>
      </trkpt>
      <trkpt lat="43.3628" lon="2.92974">
        <ele>200.9</ele>
        <time>2015-05-14T06:52:19Z</time>
      </trkpt>
      <trkpt lat="43.36274" lon="2.92974">
        <ele>200.3</ele>
        <time>2015-05-14T06:52:20Z</time>
      </trkpt>
      <trkpt lat="43.36269" lon="2.92977">
        <ele>199.3</ele>
        <time>2015-05-14T06:52:21Z</time>
      </trkpt>
      <trkpt lat="43.36266" lon="2.92977">
        <ele>199.3</ele>
        <time>2015-05-14T06:52:22Z</time>
      </trkpt>
      <trkpt lat="43.36262" lon="2.92978">
        <ele>198.8</ele>
        <time>2015-05-14T06:52:23Z</time>
      </trkpt>
      <trkpt lat="43.36258" lon="2.92981">
        <ele>198.3</ele>
        <time>2015-05-14T06:52:24Z</time>
      </trkpt>
      <trkpt lat="43.36255" lon="2.92983">
        <ele>197.9</ele>
        <time>2015-05-14T06:52:25Z</time>
      </trkpt>
      <trkpt lat="43.36255" lon="2.92984">
        <ele>197.8</ele>
        <time>2015-05-14T06:52:26Z</time>
      </trkpt>
      <trkpt lat="43.36255" lon="2.92984">
        <ele>197.7</ele>
        <time>2015-05-14T06:52:27Z</time>
      </trkpt>
      <trkpt lat="43.36256" lon="2.92987">
        <ele>197.4</ele>
        <time>2015-05-14T06:52:28Z</time>
      </trkpt>
      <trkpt lat="43.36255" lon="2.9299">
        <ele>196.9</ele>
        <time>2015-05-14T06:52:29Z</time>
      </trkpt>
      <trkpt lat="43.36255" lon="2.92994">
        <ele>196.5</ele>
        <time>2015-05-14T06:52:30Z</time>
      </trkpt>
      <trkpt lat="43.36252" lon="2.92998">
        <ele>196.1</ele>
        <time>2015-05-14T06:52:32Z</time>
      </trkpt>
      <trkpt lat="43.36248" lon="2.93002">
        <ele>195.6</ele>
        <time>2015-05-14T06:52:33Z</time>
      </trkpt>
      <trkpt lat="43.36248" lon="2.93007">
        <ele>195.1</ele>
        <time>2015-05-14T06:52:34Z</time>
      </trkpt>
      <trkpt lat="43.36248" lon="2.93015">
        <ele>194.4</ele>
        <time>2015-05-14T06:52:35Z</time>
      </trkpt>
      <trkpt lat="43.36246" lon="2.93014">
        <ele>194.4</ele>
        <time>2015-05-14T06:52:36Z</time>
      </trkpt>
      <trkpt lat="43.36243" lon="2.93012">
        <ele>194.5</ele>
        <time>2015-05-14T06:52:37Z</time>
      </trkpt>
      <trkpt lat="43.36241" lon="2.93011">
        <ele>194.5</ele>
        <time>2015-05-14T06:52:38Z</time>
      </trkpt>
      <trkpt lat="43.36238" lon="2.93011">
        <ele>194.5</ele>
        <time>2015-05-14T06:52:39Z</time>
      </trkpt>
      <trkpt lat="43.36235" lon="2.93011">
        <ele>194.4</ele>
        <time>2015-05-14T06:52:40Z</time>
      </trkpt>
      <trkpt lat="43.36232" lon="2.93015">
        <ele>194.2</ele>
        <time>2015-05-14T06:52:41Z</time>
      </trkpt>
      <trkpt lat="43.36228" lon="2.93023">
        <ele>193.9</ele>
        <time>2015-05-14T06:52:43Z</time>
      </trkpt>
      <trkpt lat="43.36222" lon="2.93029">
        <ele>193.9</ele>
        <time>2015-05-14T06:52:46Z</time>
      </trkpt>
      <trkpt lat="43.36218" lon="2.93029">
        <ele>193.5</ele>
        <time>2015-05-14T06:52:47Z</time>
      </trkpt>
      <trkpt lat="43.36214" lon="2.93029">
        <ele>193.1</ele>
        <time>2015-05-14T06:52:48Z</time>
      </trkpt>
      <trkpt lat="43.3621" lon="2.93027">
        <ele>192.7</ele>
        <time>2015-05-14T06:52:49Z</time>
      </trkpt>
      <trkpt lat="43.36209" lon="2.9303">
        <ele>192.5</ele>
        <time>2015-05-14T06:52:50Z</time>
      </trkpt>
      <trkpt lat="43.36207" lon="2.93032">
        <ele>192.3</ele>
        <time>2015-05-14T06:52:51Z</time>
      </trkpt>
      <trkpt lat="43.36201" lon="2.93036">
        <ele>191.6</ele>
        <time>2015-05-14T06:52:54Z</time>
      </trkpt>
      <trkpt lat="43.36199" lon="2.93038">
        <ele>191.4</ele>
        <time>2015-05-14T06:52:55Z</time>
      </trkpt>
      <trkpt lat="43.36197" lon="2.9304">
        <ele>191.3</ele>
        <time>2015-05-14T06:52:56Z</time>
      </trkpt>
      <trkpt lat="43.36198" lon="2.93043">
        <ele>191.3</ele>
        <time>2015-05-14T06:52:57Z</time>
      </trkpt>
      <trkpt lat="43.36199" lon="2.93046">
        <ele>191.4</ele>
        <time>2015-05-14T06:52:58Z</time>
      </trkpt>
      <trkpt lat="43.36199" lon="2.93048">
        <ele>191.4</ele>
        <time>2015-05-14T06:52:59Z</time>
      </trkpt>
      <trkpt lat="43.36199" lon="2.93057">
        <ele>191.1</ele>
        <time>2015-05-14T06:53:03Z</time>
      </trkpt>
      <trkpt lat="43.362" lon="2.93065">
        <ele>190.1</ele>
        <time>2015-05-14T06:53:06Z</time>
      </trkpt>
      <trkpt lat="43.36204" lon="2.93069">
        <ele>189.8</ele>
        <time>2015-05-14T06:53:08Z</time>
      </trkpt>
      <trkpt lat="43.36208" lon="2.93079">
        <ele>188.3</ele>
        <time>2015-05-14T06:53:12Z</time>
      </trkpt>
      <trkpt lat="43.36209" lon="2.93081">
        <ele>187.9</ele>
        <time>2015-05-14T06:53:13Z</time>
      </trkpt>
      <trkpt lat="43.36215" lon="2.93086">
        <ele>186.7</ele>
        <time>2015-05-14T06:53:15Z</time>
      </trkpt>
      <trkpt lat="43.36218" lon="2.93088">
        <ele>186.1</ele>
        <time>2015-05-14T06:53:16Z</time>
      </trkpt>
      <trkpt lat="43.36222" lon="2.93088">
        <ele>185.8</ele>
        <time>2015-05-14T06:53:17Z</time>
      </trkpt>
      <trkpt lat="43.36225" lon="2.93088">
        <ele>185.4</ele>
        <time>2015-05-14T06:53:18Z</time>
      </trkpt>
      <trkpt lat="43.36228" lon="2.93088">
        <ele>185.1</ele>
        <time>2015-05-14T06:53:19Z</time>
      </trkpt>
      <trkpt lat="43.36232" lon="2.93089">
        <ele>184.6</ele>
        <time>2015-05-14T06:53:20Z</time>
      </trkpt>
      <trkpt lat="43.36234" lon="2.9309">
        <ele>184.1</ele>
        <time>2015-05-14T06:53:21Z</time>
      </trkpt>
      <trkpt lat="43.36236" lon="2.93092">
        <ele>183.5</ele>
        <time>2015-05-14T06:53:22Z</time>
      </trkpt>
      <trkpt lat="43.36238" lon="2.93094">
        <ele>182.9</ele>
        <time>2015-05-14T06:53:23Z</time>
      </trkpt>
      <trkpt lat="43.36239" lon="2.93096">
        <ele>182.4</ele>
        <time>2015-05-14T06:53:24Z</time>
      </trkpt>
      <trkpt lat="43.36241" lon="2.931">
        <ele>181.8</ele>
        <time>2015-05-14T06:53:25Z</time>
      </trkpt>
      <trkpt lat="43.36242" lon="2.93104">
        <ele>181</ele>
        <time>2015-05-14T06:53:26Z</time>
      </trkpt>
      <trkpt lat="43.36243" lon="2.93108">
        <ele>180.4</ele>
        <time>2015-05-14T06:53:27Z</time>
      </trkpt>
      <trkpt lat="43.36245" lon="2.93112">
        <ele>179.9</ele>
        <time>2015-05-14T06:53:28Z</time>
      </trkpt>
      <trkpt lat="43.36245" lon="2.93115">
        <ele>179.7</ele>
        <time>2015-05-14T06:53:29Z</time>
      </trkpt>
      <trkpt lat="43.36245" lon="2.93119">
        <ele>179.4</ele>
        <time>2015-05-14T06:53:30Z</time>
      </trkpt>
      <trkpt lat="43.36246" lon="2.93123">
        <ele>179.1</ele>
        <time>2015-05-14T06:53:31Z</time>
      </trkpt>
      <trkpt lat="43.36245" lon="2.93129">
        <ele>178.5</ele>
        <time>2015-05-14T06:53:33Z</time>
      </trkpt>
      <trkpt lat="43.36244" lon="2.93133">
        <ele>178.1</ele>
        <time>2015-05-14T06:53:34Z</time>
      </trkpt>
      <trkpt lat="43.36244" lon="2.93138">
        <ele>177.6</ele>
        <time>2015-05-14T06:53:35Z</time>
      </trkpt>
      <trkpt lat="43.36244" lon="2.93143">
        <ele>177.4</ele>
        <time>2015-05-14T06:53:36Z</time>
      </trkpt>
      <trkpt lat="43.36245" lon="2.93147">
        <ele>177.3</ele>
        <time>2015-05-14T06:53:37Z</time>
      </trkpt>
      <trkpt lat="43.36251" lon="2.93161">
        <ele>177.3</ele>
        <time>2015-05-14T06:53:40Z</time>
      </trkpt>
      <trkpt lat="43.3625" lon="2.93166">
        <ele>177</ele>
        <time>2015-05-14T06:53:41Z</time>
      </trkpt>
      <trkpt lat="43.36248" lon="2.93186">
        <ele>176</ele>
        <time>2015-05-14T06:53:45Z</time>
      </trkpt>
      <trkpt lat="43.36249" lon="2.93192">
        <ele>175.9</ele>
        <time>2015-05-14T06:53:46Z</time>
      </trkpt>
      <trkpt lat="43.36252" lon="2.93203">
        <ele>176.4</ele>
        <time>2015-05-14T06:53:48Z</time>
      </trkpt>
      <trkpt lat="43.36259" lon="2.93224">
        <ele>176.9</ele>
        <time>2015-05-14T06:53:52Z</time>
      </trkpt>
      <trkpt lat="43.36261" lon="2.93236">
        <ele>176.9</ele>
        <time>2015-05-14T06:53:54Z</time>
      </trkpt>
      <trkpt lat="43.36262" lon="2.93242">
        <ele>176.9</ele>
        <time>2015-05-14T06:53:55Z</time>
      </trkpt>
      <trkpt lat="43.36263" lon="2.93247">
        <ele>176.9</ele>
        <time>2015-05-14T06:53:56Z</time>
      </trkpt>
      <trkpt lat="43.36265" lon="2.93263">
        <ele>176.9</ele>
        <time>2015-05-14T06:54:00Z</time>
      </trkpt>
      <trkpt lat="43.36267" lon="2.93266">
        <ele>177.1</ele>
        <time>2015-05-14T06:54:01Z</time>
      </trkpt>
      <trkpt lat="43.36269" lon="2.93269">
        <ele>177.3</ele>
        <time>2015-05-14T06:54:02Z</time>
      </trkpt>
      <trkpt lat="43.36271" lon="2.93271">
        <ele>177.5</ele>
        <time>2015-05-14T06:54:03Z</time>
      </trkpt>
      <trkpt lat="43.36273" lon="2.93273">
        <ele>177.6</ele>
        <time>2015-05-14T06:54:04Z</time>
      </trkpt>
      <trkpt lat="43.36274" lon="2.93275">
        <ele>177.7</ele>
        <time>2015-05-14T06:54:05Z</time>
      </trkpt>
      <trkpt lat="43.36276" lon="2.93277">
        <ele>177.8</ele>
        <time>2015-05-14T06:54:06Z</time>
      </trkpt>
      <trkpt lat="43.36278" lon="2.93278">
        <ele>178</ele>
        <time>2015-05-14T06:54:07Z</time>
      </trkpt>
      <trkpt lat="43.3628" lon="2.93278">
        <ele>178.2</ele>
        <time>2015-05-14T06:54:08Z</time>
      </trkpt>
      <trkpt lat="43.36282" lon="2.9328">
        <ele>178.3</ele>
        <time>2015-05-14T06:54:09Z</time>
      </trkpt>
      <trkpt lat="43.36284" lon="2.93282">
        <ele>178.5</ele>
        <time>2015-05-14T06:54:10Z</time>
      </trkpt>
      <trkpt lat="43.36294" lon="2.93292">
        <ele>179.2</ele>
        <time>2015-05-14T06:54:15Z</time>
      </trkpt>
      <trkpt lat="43.36297" lon="2.93296">
        <ele>179.4</ele>
        <time>2015-05-14T06:54:17Z</time>
      </trkpt>
      <trkpt lat="43.36301" lon="2.933">
        <ele>179.7</ele>
        <time>2015-05-14T06:54:19Z</time>
      </trkpt>
      <trkpt lat="43.36311" lon="2.93301">
        <ele>180.4</ele>
        <time>2015-05-14T06:54:23Z</time>
      </trkpt>
      <trkpt lat="43.36321" lon="2.93303">
        <ele>181.1</ele>
        <time>2015-05-14T06:54:27Z</time>
      </trkpt>
      <trkpt lat="43.36329" lon="2.93301">
        <ele>181.7</ele>
        <time>2015-05-14T06:54:30Z</time>
      </trkpt>
      <trkpt lat="43.36332" lon="2.93301">
        <ele>181.9</ele>
        <time>2015-05-14T06:54:31Z</time>
      </trkpt>
      <trkpt lat="43.36334" lon="2.93301">
        <ele>181.9</ele>
        <time>2015-05-14T06:54:32Z</time>
      </trkpt>
      <trkpt lat="43.36337" lon="2.93301">
        <ele>181.8</ele>
        <time>2015-05-14T06:54:33Z</time>
      </trkpt>
      <trkpt lat="43.3634" lon="2.933">
        <ele>181.6</ele>
        <time>2015-05-14T06:54:34Z</time>
      </trkpt>
      <trkpt lat="43.36344" lon="2.93296">
        <ele>181.5</ele>
        <time>2015-05-14T06:54:36Z</time>
      </trkpt>
      <trkpt lat="43.36354" lon="2.93286">
        <ele>181.6</ele>
        <time>2015-05-14T06:54:41Z</time>
      </trkpt>
      <trkpt lat="43.36356" lon="2.93284">
        <ele>181.7</ele>
        <time>2015-05-14T06:54:42Z</time>
      </trkpt>
      <trkpt lat="43.36359" lon="2.93275">
        <ele>182.2</ele>
        <time>2015-05-14T06:54:45Z</time>
      </trkpt>
      <trkpt lat="43.36362" lon="2.93262">
        <ele>183.1</ele>
        <time>2015-05-14T06:54:50Z</time>
      </trkpt>
      <trkpt lat="43.36364" lon="2.93257">
        <ele>183.4</ele>
        <time>2015-05-14T06:54:52Z</time>
      </trkpt>
      <trkpt lat="43.36365" lon="2.93254">
        <ele>183.6</ele>
        <time>2015-05-14T06:54:53Z</time>
      </trkpt>
      <trkpt lat="43.36366" lon="2.93251">
        <ele>183.7</ele>
        <time>2015-05-14T06:54:54Z</time>
      </trkpt>
      <trkpt lat="43.36368" lon="2.93249">
        <ele>183.9</ele>
        <time>2015-05-14T06:54:55Z</time>
      </trkpt>
      <trkpt lat="43.36369" lon="2.93247">
        <ele>184.2</ele>
        <time>2015-05-14T06:54:56Z</time>
      </trkpt>
      <trkpt lat="43.36375" lon="2.93237">
        <ele>185.4</ele>
        <time>2015-05-14T06:55:01Z</time>
      </trkpt>
      <trkpt lat="43.36376" lon="2.93235">
        <ele>185.6</ele>
        <time>2015-05-14T06:55:02Z</time>
      </trkpt>
      <trkpt lat="43.36376" lon="2.93234">
        <ele>185.8</ele>
        <time>2015-05-14T06:55:03Z</time>
      </trkpt>
      <trkpt lat="43.36377" lon="2.93233">
        <ele>185.9</ele>
        <time>2015-05-14T06:55:04Z</time>
      </trkpt>
      <trkpt lat="43.36377" lon="2.93233">
        <ele>185.9</ele>
        <time>2015-05-14T06:55:10Z</time>
      </trkpt>
      <trkpt lat="43.36378" lon="2.93233">
        <ele>185.9</ele>
        <time>2015-05-14T06:55:11Z</time>
      </trkpt>
      <trkpt lat="43.36386" lon="2.93238">
        <ele>184.9</ele>
        <time>2015-05-14T06:55:15Z</time>
      </trkpt>
      <trkpt lat="43.36406" lon="2.93247">
        <ele>182.8</ele>
        <time>2015-05-14T06:55:19Z</time>
      </trkpt>
      <trkpt lat="43.3641" lon="2.93251">
        <ele>182.1</ele>
        <time>2015-05-14T06:55:20Z</time>
      </trkpt>
      <trkpt lat="43.36414" lon="2.93255">
        <ele>181.4</ele>
        <time>2015-05-14T06:55:21Z</time>
      </trkpt>
      <trkpt lat="43.36416" lon="2.9326">
        <ele>180.5</ele>
        <time>2015-05-14T06:55:22Z</time>
      </trkpt>
      <trkpt lat="43.36418" lon="2.93265">
        <ele>179.8</ele>
        <time>2015-05-14T06:55:23Z</time>
      </trkpt>
      <trkpt lat="43.3642" lon="2.93268">
        <ele>179.4</ele>
        <time>2015-05-14T06:55:24Z</time>
      </trkpt>
      <trkpt lat="43.36422" lon="2.93269">
        <ele>179.2</ele>
        <time>2015-05-14T06:55:25Z</time>
      </trkpt>
      <trkpt lat="43.36425" lon="2.93268">
        <ele>179.2</ele>
        <time>2015-05-14T06:55:26Z</time>
      </trkpt>
      <trkpt lat="43.36429" lon="2.93265">
        <ele>179.7</ele>
        <time>2015-05-14T06:55:28Z</time>
      </trkpt>
      <trkpt lat="43.36429" lon="2.93262">
        <ele>180</ele>
        <time>2015-05-14T06:55:29Z</time>
      </trkpt>
      <trkpt lat="43.3643" lon="2.9326">
        <ele>180.3</ele>
        <time>2015-05-14T06:55:30Z</time>
      </trkpt>
      <trkpt lat="43.3643" lon="2.93257">
        <ele>180.6</ele>
        <time>2015-05-14T06:55:31Z</time>
      </trkpt>
      <trkpt lat="43.36431" lon="2.93255">
        <ele>180.9</ele>
        <time>2015-05-14T06:55:32Z</time>
      </trkpt>
      <trkpt lat="43.36431" lon="2.93249">
        <ele>181.6</ele>
        <time>2015-05-14T06:55:34Z</time>
      </trkpt>
      <trkpt lat="43.36432" lon="2.93239">
        <ele>183.1</ele>
        <time>2015-05-14T06:55:38Z</time>
      </trkpt>
      <trkpt lat="43.36432" lon="2.93236">
        <ele>183.4</ele>
        <time>2015-05-14T06:55:39Z</time>
      </trkpt>
      <trkpt lat="43.36432" lon="2.93234">
        <ele>183.7</ele>
        <time>2015-05-14T06:55:40Z</time>
      </trkpt>
      <trkpt lat="43.36433" lon="2.93232">
        <ele>184</ele>
        <time>2015-05-14T06:55:41Z</time>
      </trkpt>
      <trkpt lat="43.36433" lon="2.9323">
        <ele>184.3</ele>
        <time>2015-05-14T06:55:42Z</time>
      </trkpt>
      <trkpt lat="43.36434" lon="2.93229">
        <ele>184.5</ele>
        <time>2015-05-14T06:55:43Z</time>
      </trkpt>
      <trkpt lat="43.36435" lon="2.93228">
        <ele>184.6</ele>
        <time>2015-05-14T06:55:44Z</time>
      </trkpt>
      <trkpt lat="43.36436" lon="2.93227">
        <ele>184.6</ele>
        <time>2015-05-14T06:55:45Z</time>
      </trkpt>
      <trkpt lat="43.36438" lon="2.93227">
        <ele>184.5</ele>
        <time>2015-05-14T06:55:46Z</time>
      </trkpt>
      <trkpt lat="43.3644" lon="2.93228">
        <ele>184.4</ele>
        <time>2015-05-14T06:55:47Z</time>
      </trkpt>
      <trkpt lat="43.36449" lon="2.93229">
        <ele>184.2</ele>
        <time>2015-05-14T06:55:51Z</time>
      </trkpt>
      <trkpt lat="43.36459" lon="2.93223">
        <ele>185.4</ele>
        <time>2015-05-14T06:55:57Z</time>
      </trkpt>
      <trkpt lat="43.36461" lon="2.93218">
        <ele>186.7</ele>
        <time>2015-05-14T06:56:00Z</time>
      </trkpt>
      <trkpt lat="43.36462" lon="2.93217">
        <ele>187</ele>
        <time>2015-05-14T06:56:01Z</time>
      </trkpt>
      <trkpt lat="43.36464" lon="2.93216">
        <ele>187.3</ele>
        <time>2015-05-14T06:56:02Z</time>
      </trkpt>
      <trkpt lat="43.36465" lon="2.93216">
        <ele>187.4</ele>
        <time>2015-05-14T06:56:03Z</time>
      </trkpt>
      <trkpt lat="43.36466" lon="2.93215">
        <ele>187.6</ele>
        <time>2015-05-14T06:56:04Z</time>
      </trkpt>
      <trkpt lat="43.36467" lon="2.93215">
        <ele>187.7</ele>
        <time>2015-05-14T06:56:05Z</time>
      </trkpt>
      <trkpt lat="43.3647" lon="2.93216">
        <ele>187.5</ele>
        <time>2015-05-14T06:56:07Z</time>
      </trkpt>
      <trkpt lat="43.36472" lon="2.93216">
        <ele>187.6</ele>
        <time>2015-05-14T06:56:08Z</time>
      </trkpt>
      <trkpt lat="43.36474" lon="2.93216">
        <ele>187.5</ele>
        <time>2015-05-14T06:56:09Z</time>
      </trkpt>
      <trkpt lat="43.36476" lon="2.93216">
        <ele>187.5</ele>
        <time>2015-05-14T06:56:10Z</time>
      </trkpt>
      <trkpt lat="43.36478" lon="2.93216">
        <ele>187.4</ele>
        <time>2015-05-14T06:56:11Z</time>
      </trkpt>
      <trkpt lat="43.36482" lon="2.93215">
        <ele>187.6</ele>
        <time>2015-05-14T06:56:13Z</time>
      </trkpt>
      <trkpt lat="43.36488" lon="2.93211">
        <ele>188.5</ele>
        <time>2015-05-14T06:56:18Z</time>
      </trkpt>
      <trkpt lat="43.3649" lon="2.9321">
        <ele>188.6</ele>
        <time>2015-05-14T06:56:20Z</time>
      </trkpt>
      <trkpt lat="43.36498" lon="2.93213">
        <ele>187.7</ele>
        <time>2015-05-14T06:56:23Z</time>
      </trkpt>
      <trkpt lat="43.36501" lon="2.93219">
        <ele>186</ele>
        <time>2015-05-14T06:56:25Z</time>
      </trkpt>
      <trkpt lat="43.36504" lon="2.93221">
        <ele>185.1</ele>
        <time>2015-05-14T06:56:26Z</time>
      </trkpt>
      <trkpt lat="43.36507" lon="2.93223">
        <ele>184.6</ele>
        <time>2015-05-14T06:56:27Z</time>
      </trkpt>
      <trkpt lat="43.36509" lon="2.93224">
        <ele>184.4</ele>
        <time>2015-05-14T06:56:28Z</time>
      </trkpt>
      <trkpt lat="43.36511" lon="2.93224">
        <ele>184.4</ele>
        <time>2015-05-14T06:56:29Z</time>
      </trkpt>
      <trkpt lat="43.36514" lon="2.93223">
        <ele>184.3</ele>
        <time>2015-05-14T06:56:30Z</time>
      </trkpt>
      <trkpt lat="43.36518" lon="2.93223">
        <ele>184.2</ele>
        <time>2015-05-14T06:56:31Z</time>
      </trkpt>
      <trkpt lat="43.36521" lon="2.93223">
        <ele>184.1</ele>
        <time>2015-05-14T06:56:32Z</time>
      </trkpt>
      <trkpt lat="43.36524" lon="2.93223">
        <ele>183.9</ele>
        <time>2015-05-14T06:56:33Z</time>
      </trkpt>
      <trkpt lat="43.36527" lon="2.93224">
        <ele>183.7</ele>
        <time>2015-05-14T06:56:34Z</time>
      </trkpt>
      <trkpt lat="43.3653" lon="2.93225">
        <ele>183.4</ele>
        <time>2015-05-14T06:56:35Z</time>
      </trkpt>
      <trkpt lat="43.36532" lon="2.93226">
        <ele>183.3</ele>
        <time>2015-05-14T06:56:36Z</time>
      </trkpt>
      <trkpt lat="43.3654" lon="2.93224">
        <ele>183.7</ele>
        <time>2015-05-14T06:56:39Z</time>
      </trkpt>
      <trkpt lat="43.36541" lon="2.93222">
        <ele>184</ele>
        <time>2015-05-14T06:56:40Z</time>
      </trkpt>
      <trkpt lat="43.36547" lon="2.93217">
        <ele>184.9</ele>
        <time>2015-05-14T06:56:43Z</time>
      </trkpt>
      <trkpt lat="43.36561" lon="2.93219">
        <ele>184.7</ele>
        <time>2015-05-14T06:56:48Z</time>
      </trkpt>
      <trkpt lat="43.36564" lon="2.9322">
        <ele>184.5</ele>
        <time>2015-05-14T06:56:49Z</time>
      </trkpt>
      <trkpt lat="43.36572" lon="2.93228">
        <ele>182.7</ele>
        <time>2015-05-14T06:56:52Z</time>
      </trkpt>
      <trkpt lat="43.36585" lon="2.93241">
        <ele>180.1</ele>
        <time>2015-05-14T06:56:56Z</time>
      </trkpt>
      <trkpt lat="43.36594" lon="2.9325">
        <ele>178.3</ele>
        <time>2015-05-14T06:56:59Z</time>
      </trkpt>
      <trkpt lat="43.36597" lon="2.93254">
        <ele>177.7</ele>
        <time>2015-05-14T06:57:00Z</time>
      </trkpt>
      <trkpt lat="43.366" lon="2.93258">
        <ele>177</ele>
        <time>2015-05-14T06:57:01Z</time>
      </trkpt>
      <trkpt lat="43.36603" lon="2.93262">
        <ele>176</ele>
        <time>2015-05-14T06:57:02Z</time>
      </trkpt>
      <trkpt lat="43.36606" lon="2.93267">
        <ele>175.1</ele>
        <time>2015-05-14T06:57:03Z</time>
      </trkpt>
      <trkpt lat="43.3661" lon="2.9327">
        <ele>174.7</ele>
        <time>2015-05-14T06:57:04Z</time>
      </trkpt>
      <trkpt lat="43.36613" lon="2.93272">
        <ele>174.8</ele>
        <time>2015-05-14T06:57:05Z</time>
      </trkpt>
      <trkpt lat="43.36616" lon="2.93273">
        <ele>175.1</ele>
        <time>2015-05-14T06:57:06Z</time>
      </trkpt>
      <trkpt lat="43.36618" lon="2.93275">
        <ele>175.2</ele>
        <time>2015-05-14T06:57:07Z</time>
      </trkpt>
      <trkpt lat="43.36621" lon="2.93279">
        <ele>174.9</ele>
        <time>2015-05-14T06:57:08Z</time>
      </trkpt>
      <trkpt lat="43.36632" lon="2.93292">
        <ele>174.3</ele>
        <time>2015-05-14T06:57:12Z</time>
      </trkpt>
      <trkpt lat="43.36637" lon="2.93298">
        <ele>173.5</ele>
        <time>2015-05-14T06:57:14Z</time>
      </trkpt>
      <trkpt lat="43.3664" lon="2.93299">
        <ele>174.1</ele>
        <time>2015-05-14T06:57:15Z</time>
      </trkpt>
      <trkpt lat="43.36643" lon="2.93298">
        <ele>175.1</ele>
        <time>2015-05-14T06:57:16Z</time>
      </trkpt>
      <trkpt lat="43.36646" lon="2.93299">
        <ele>175.6</ele>
        <time>2015-05-14T06:57:17Z</time>
      </trkpt>
      <trkpt lat="43.36648" lon="2.93301">
        <ele>175.7</ele>
        <time>2015-05-14T06:57:18Z</time>
      </trkpt>
      <trkpt lat="43.3665" lon="2.93303">
        <ele>175.9</ele>
        <time>2015-05-14T06:57:19Z</time>
      </trkpt>
      <trkpt lat="43.36653" lon="2.93306">
        <ele>175.9</ele>
        <time>2015-05-14T06:57:20Z</time>
      </trkpt>
      <trkpt lat="43.36656" lon="2.93315">
        <ele>175.1</ele>
        <time>2015-05-14T06:57:23Z</time>
      </trkpt>
      <trkpt lat="43.36656" lon="2.93317">
        <ele>174.5</ele>
        <time>2015-05-14T06:57:24Z</time>
      </trkpt>
      <trkpt lat="43.36653" lon="2.93327">
        <ele>172</ele>
        <time>2015-05-14T06:57:27Z</time>
      </trkpt>
      <trkpt lat="43.36652" lon="2.93332">
        <ele>170.6</ele>
        <time>2015-05-14T06:57:28Z</time>
      </trkpt>
      <trkpt lat="43.3665" lon="2.93339">
        <ele>169.2</ele>
        <time>2015-05-14T06:57:29Z</time>
      </trkpt>
      <trkpt lat="43.36649" lon="2.93345">
        <ele>168.1</ele>
        <time>2015-05-14T06:57:30Z</time>
      </trkpt>
      <trkpt lat="43.36647" lon="2.9335">
        <ele>167.1</ele>
        <time>2015-05-14T06:57:31Z</time>
      </trkpt>
      <trkpt lat="43.36645" lon="2.93354">
        <ele>166.1</ele>
        <time>2015-05-14T06:57:32Z</time>
      </trkpt>
      <trkpt lat="43.36642" lon="2.93359">
        <ele>165</ele>
        <time>2015-05-14T06:57:33Z</time>
      </trkpt>
      <trkpt lat="43.3664" lon="2.93364">
        <ele>163.9</ele>
        <time>2015-05-14T06:57:34Z</time>
      </trkpt>
      <trkpt lat="43.36639" lon="2.93371">
        <ele>163</ele>
        <time>2015-05-14T06:57:35Z</time>
      </trkpt>
      <trkpt lat="43.36639" lon="2.93377">
        <ele>162.5</ele>
        <time>2015-05-14T06:57:36Z</time>
      </trkpt>
      <trkpt lat="43.36639" lon="2.93383">
        <ele>161.7</ele>
        <time>2015-05-14T06:57:37Z</time>
      </trkpt>
      <trkpt lat="43.36638" lon="2.93387">
        <ele>161</ele>
        <time>2015-05-14T06:57:38Z</time>
      </trkpt>
      <trkpt lat="43.36637" lon="2.93391">
        <ele>160.6</ele>
        <time>2015-05-14T06:57:39Z</time>
      </trkpt>
      <trkpt lat="43.36635" lon="2.93396">
        <ele>160.1</ele>
        <time>2015-05-14T06:57:40Z</time>
      </trkpt>
      <trkpt lat="43.36632" lon="2.93399">
        <ele>159.6</ele>
        <time>2015-05-14T06:57:41Z</time>
      </trkpt>
      <trkpt lat="43.3663" lon="2.93403">
        <ele>159</ele>
        <time>2015-05-14T06:57:42Z</time>
      </trkpt>
      <trkpt lat="43.36628" lon="2.93407">
        <ele>158.4</ele>
        <time>2015-05-14T06:57:43Z</time>
      </trkpt>
      <trkpt lat="43.36627" lon="2.93411">
        <ele>158.2</ele>
        <time>2015-05-14T06:57:44Z</time>
      </trkpt>
      <trkpt lat="43.36627" lon="2.93414">
        <ele>158.1</ele>
        <time>2015-05-14T06:57:45Z</time>
      </trkpt>
      <trkpt lat="43.36629" lon="2.93418">
        <ele>158.1</ele>
        <time>2015-05-14T06:57:46Z</time>
      </trkpt>
      <trkpt lat="43.36631" lon="2.93428">
        <ele>158.1</ele>
        <time>2015-05-14T06:57:48Z</time>
      </trkpt>
      <trkpt lat="43.36632" lon="2.93437">
        <ele>158</ele>
        <time>2015-05-14T06:57:50Z</time>
      </trkpt>
      <trkpt lat="43.36631" lon="2.93442">
        <ele>157.6</ele>
        <time>2015-05-14T06:57:51Z</time>
      </trkpt>
      <trkpt lat="43.36624" lon="2.93447">
        <ele>156.2</ele>
        <time>2015-05-14T06:57:54Z</time>
      </trkpt>
      <trkpt lat="43.36622" lon="2.93456">
        <ele>155.3</ele>
        <time>2015-05-14T06:57:57Z</time>
      </trkpt>
      <trkpt lat="43.3662" lon="2.93457">
        <ele>154.7</ele>
        <time>2015-05-14T06:57:58Z</time>
      </trkpt>
      <trkpt lat="43.36615" lon="2.93458">
        <ele>153.8</ele>
        <time>2015-05-14T06:57:59Z</time>
      </trkpt>
      <trkpt lat="43.36609" lon="2.93459">
        <ele>152.7</ele>
        <time>2015-05-14T06:58:00Z</time>
      </trkpt>
      <trkpt lat="43.36605" lon="2.93461">
        <ele>151.9</ele>
        <time>2015-05-14T06:58:01Z</time>
      </trkpt>
      <trkpt lat="43.36601" lon="2.93464">
        <ele>151.2</ele>
        <time>2015-05-14T06:58:02Z</time>
      </trkpt>
      <trkpt lat="43.366" lon="2.93468">
        <ele>150.7</ele>
        <time>2015-05-14T06:58:03Z</time>
      </trkpt>
      <trkpt lat="43.366" lon="2.93472">
        <ele>150.4</ele>
        <time>2015-05-14T06:58:04Z</time>
      </trkpt>
      <trkpt lat="43.36601" lon="2.93476">
        <ele>150.4</ele>
        <time>2015-05-14T06:58:05Z</time>
      </trkpt>
      <trkpt lat="43.36602" lon="2.93479">
        <ele>150.4</ele>
        <time>2015-05-14T06:58:06Z</time>
      </trkpt>
      <trkpt lat="43.36603" lon="2.93484">
        <ele>150.3</ele>
        <time>2015-05-14T06:58:07Z</time>
      </trkpt>
      <trkpt lat="43.366" lon="2.93498">
        <ele>149.4</ele>
        <time>2015-05-14T06:58:10Z</time>
      </trkpt>
      <trkpt lat="43.36597" lon="2.93502">
        <ele>148.8</ele>
        <time>2015-05-14T06:58:11Z</time>
      </trkpt>
      <trkpt lat="43.36593" lon="2.93504">
        <ele>148.1</ele>
        <time>2015-05-14T06:58:12Z</time>
      </trkpt>
      <trkpt lat="43.36589" lon="2.93506">
        <ele>147.3</ele>
        <time>2015-05-14T06:58:13Z</time>
      </trkpt>
      <trkpt lat="43.36585" lon="2.93509">
        <ele>146.6</ele>
        <time>2015-05-14T06:58:14Z</time>
      </trkpt>
      <trkpt lat="43.36583" lon="2.93513">
        <ele>146.1</ele>
        <time>2015-05-14T06:58:15Z</time>
      </trkpt>
      <trkpt lat="43.36583" lon="2.93517">
        <ele>145.7</ele>
        <time>2015-05-14T06:58:16Z</time>
      </trkpt>
      <trkpt lat="43.36584" lon="2.93522">
        <ele>145.5</ele>
        <time>2015-05-14T06:58:17Z</time>
      </trkpt>
      <trkpt lat="43.36587" lon="2.93527">
        <ele>145.5</ele>
        <time>2015-05-14T06:58:18Z</time>
      </trkpt>
      <trkpt lat="43.3659" lon="2.93532">
        <ele>145.5</ele>
        <time>2015-05-14T06:58:19Z</time>
      </trkpt>
      <trkpt lat="43.3659" lon="2.93536">
        <ele>145.5</ele>
        <time>2015-05-14T06:58:20Z</time>
      </trkpt>
      <trkpt lat="43.3659" lon="2.9354">
        <ele>145.2</ele>
        <time>2015-05-14T06:58:21Z</time>
      </trkpt>
      <trkpt lat="43.36588" lon="2.93545">
        <ele>144.9</ele>
        <time>2015-05-14T06:58:22Z</time>
      </trkpt>
      <trkpt lat="43.36587" lon="2.93549">
        <ele>144.7</ele>
        <time>2015-05-14T06:58:23Z</time>
      </trkpt>
      <trkpt lat="43.36587" lon="2.93553">
        <ele>144.5</ele>
        <time>2015-05-14T06:58:24Z</time>
      </trkpt>
      <trkpt lat="43.36587" lon="2.93556">
        <ele>144.4</ele>
        <time>2015-05-14T06:58:25Z</time>
      </trkpt>
      <trkpt lat="43.36586" lon="2.93559">
        <ele>144.4</ele>
        <time>2015-05-14T06:58:27Z</time>
      </trkpt>
      <trkpt lat="43.36586" lon="2.9356">
        <ele>144.4</ele>
        <time>2015-05-14T06:58:28Z</time>
      </trkpt>
      <trkpt lat="43.36586" lon="2.9356">
        <ele>144.4</ele>
        <time>2015-05-14T06:58:29Z</time>
      </trkpt>
      <trkpt lat="43.36586" lon="2.9356">
        <ele>144.4</ele>
        <time>2015-05-14T06:58:31Z</time>
      </trkpt>
      <trkpt lat="43.36586" lon="2.93567">
        <ele>144.4</ele>
        <time>2015-05-14T06:58:34Z</time>
      </trkpt>
      <trkpt lat="43.36586" lon="2.93568">
        <ele>144.4</ele>
        <time>2015-05-14T06:58:35Z</time>
      </trkpt>
      <trkpt lat="43.36586" lon="2.9357">
        <ele>144.5</ele>
        <time>2015-05-14T06:58:36Z</time>
      </trkpt>
      <trkpt lat="43.36586" lon="2.93572">
        <ele>144.5</ele>
        <time>2015-05-14T06:58:37Z</time>
      </trkpt>
      <trkpt lat="43.36586" lon="2.93573">
        <ele>144.4</ele>
        <time>2015-05-14T06:58:38Z</time>
      </trkpt>
      <trkpt lat="43.36586" lon="2.93575">
        <ele>144.4</ele>
        <time>2015-05-14T06:58:39Z</time>
      </trkpt>
      <trkpt lat="43.36584" lon="2.93577">
        <ele>144.2</ele>
        <time>2015-05-14T06:58:41Z</time>
      </trkpt>
      <trkpt lat="43.36583" lon="2.9358">
        <ele>144</ele>
        <time>2015-05-14T06:58:44Z</time>
      </trkpt>
      <trkpt lat="43.36583" lon="2.93581">
        <ele>143.9</ele>
        <time>2015-05-14T06:58:45Z</time>
      </trkpt>
      <trkpt lat="43.36582" lon="2.93582">
        <ele>143.8</ele>
        <time>2015-05-14T06:58:46Z</time>
      </trkpt>
      <trkpt lat="43.36581" lon="2.93582">
        <ele>143.8</ele>
        <time>2015-05-14T06:58:47Z</time>
      </trkpt>
      <trkpt lat="43.3658" lon="2.93582">
        <ele>143.7</ele>
        <time>2015-05-14T06:58:48Z</time>
      </trkpt>
      <trkpt lat="43.36579" lon="2.93584">
        <ele>143.5</ele>
        <time>2015-05-14T06:58:49Z</time>
      </trkpt>
      <trkpt lat="43.36575" lon="2.93588">
        <ele>142.7</ele>
        <time>2015-05-14T06:58:52Z</time>
      </trkpt>
      <trkpt lat="43.36571" lon="2.93591">
        <ele>142.1</ele>
        <time>2015-05-14T06:58:54Z</time>
      </trkpt>
      <trkpt lat="43.3657" lon="2.93594">
        <ele>141.8</ele>
        <time>2015-05-14T06:58:55Z</time>
      </trkpt>
      <trkpt lat="43.36568" lon="2.93598">
        <ele>141.3</ele>
        <time>2015-05-14T06:58:56Z</time>
      </trkpt>
      <trkpt lat="43.36566" lon="2.93604">
        <ele>140.8</ele>
        <time>2015-05-14T06:58:57Z</time>
      </trkpt>
      <trkpt lat="43.36563" lon="2.93611">
        <ele>140.3</ele>
        <time>2015-05-14T06:58:58Z</time>
      </trkpt>
      <trkpt lat="43.3656" lon="2.93615">
        <ele>139.9</ele>
        <time>2015-05-14T06:58:59Z</time>
      </trkpt>
      <trkpt lat="43.36559" lon="2.93615">
        <ele>139.9</ele>
        <time>2015-05-14T06:59:00Z</time>
      </trkpt>
      <trkpt lat="43.36559" lon="2.93615">
        <ele>139.9</ele>
        <time>2015-05-14T06:59:01Z</time>
      </trkpt>
      <trkpt lat="43.36559" lon="2.93615">
        <ele>139.9</ele>
        <time>2015-05-14T06:59:03Z</time>
      </trkpt>
      <trkpt lat="43.36559" lon="2.93615">
        <ele>139.9</ele>
        <time>2015-05-14T06:59:04Z</time>
      </trkpt>
      <trkpt lat="43.36559" lon="2.93615">
        <ele>139.8</ele>
        <time>2015-05-14T06:59:05Z</time>
      </trkpt>
      <trkpt lat="43.36559" lon="2.93615">
        <ele>139.9</ele>
        <time>2015-05-14T06:59:06Z</time>
      </trkpt>
      <trkpt lat="43.36558" lon="2.93614">
        <ele>139.9</ele>
        <time>2015-05-14T06:59:07Z</time>
      </trkpt>
      <trkpt lat="43.36558" lon="2.93614">
        <ele>139.9</ele>
        <time>2015-05-14T07:00:04Z</time>
      </trkpt>
      <trkpt lat="43.3656" lon="2.93615">
        <ele>139.9</ele>
        <time>2015-05-14T07:00:07Z</time>
      </trkpt>
      <trkpt lat="43.36555" lon="2.9362">
        <ele>139.3</ele>
        <time>2015-05-14T07:00:12Z</time>
      </trkpt>
      <trkpt lat="43.36551" lon="2.93621">
        <ele>139</ele>
        <time>2015-05-14T07:00:13Z</time>
      </trkpt>
      <trkpt lat="43.36548" lon="2.93623">
        <ele>138.7</ele>
        <time>2015-05-14T07:00:14Z</time>
      </trkpt>
      <trkpt lat="43.36543" lon="2.93625">
        <ele>138.3</ele>
        <time>2015-05-14T07:00:15Z</time>
      </trkpt>
      <trkpt lat="43.36539" lon="2.93627">
        <ele>138</ele>
        <time>2015-05-14T07:00:16Z</time>
      </trkpt>
      <trkpt lat="43.36537" lon="2.93628">
        <ele>137.8</ele>
        <time>2015-05-14T07:00:17Z</time>
      </trkpt>
      <trkpt lat="43.36536" lon="2.93629">
        <ele>137.8</ele>
        <time>2015-05-14T07:00:18Z</time>
      </trkpt>
      <trkpt lat="43.36536" lon="2.93629">
        <ele>137.7</ele>
        <time>2015-05-14T07:00:39Z</time>
      </trkpt>
      <trkpt lat="43.36535" lon="2.93631">
        <ele>137.7</ele>
        <time>2015-05-14T07:00:40Z</time>
      </trkpt>
    </trkseg>
  </trk>
</gpx>